sensor_id;sensor_type;location;lat;lon;timestamp;P1;durP1;ratioP1;P2;durP2;ratioP2
22922;SDS011;11627;51.322;22.816;2023-08-06T00:00:15;14.20;;;7.10;;
22922;SDS011;11627;51.322;22.816;2023-08-06T00:02:40;11.60;;;7.15;;
22922;SDS011;11627;51.322;22.816;2023-08-06T00:05:06;15.38;;;7.55;;
22922;SDS011;11627;51.322;22.816;2023-08-06T00:07:32;9.85;;;7.20;;
22922;SDS011;11627;51.322;22.816;2023-08-06T00:09:58;13.32;;;7.63;;
22922;SDS011;11627;51.322;22.816;2023-08-06T00:12:23;10.55;;;7.80;;
22922;SDS011;11627;51.322;22.816;2023-08-06T00:14:52;12.15;;;7.30;;
22922;SDS011;11627;51.322;22.816;2023-08-06T00:17:18;13.35;;;8.02;;
22922;SDS011;11627;51.322;22.816;2023-08-06T00:19:44;13.48;;;7.68;;
22922;SDS011;11627;51.322;22.816;2023-08-06T00:22:10;10.85;;;7.95;;
22922;SDS011;11627;51.322;22.816;2023-08-06T00:24:36;14.70;;;8.43;;
22922;SDS011;11627;51.322;22.816;2023-08-06T00:27:01;11.27;;;8.23;;
22922;SDS011;11627;51.322;22.816;2023-08-06T00:29:28;9.82;;;7.57;;
22922;SDS011;11627;51.322;22.816;2023-08-06T00:31:53;13.13;;;8.55;;
22922;SDS011;11627;51.322;22.816;2023-08-06T00:34:19;11.85;;;8.10;;
22922;SDS011;11627;51.322;22.816;2023-08-06T00:36:45;12.52;;;8.45;;
22922;SDS011;11627;51.322;22.816;2023-08-06T00:39:11;13.50;;;8.07;;
22922;SDS011;11627;51.322;22.816;2023-08-06T00:41:36;16.00;;;8.80;;
22922;SDS011;11627;51.322;22.816;2023-08-06T00:44:02;11.90;;;8.75;;
22922;SDS011;11627;51.322;22.816;2023-08-06T00:46:28;13.23;;;7.97;;
22922;SDS011;11627;51.322;22.816;2023-08-06T00:48:55;12.63;;;8.30;;
22922;SDS011;11627;51.322;22.816;2023-08-06T00:51:21;10.57;;;8.40;;
22922;SDS011;11627;51.322;22.816;2023-08-06T00:53:48;15.32;;;8.80;;
22922;SDS011;11627;51.322;22.816;2023-08-06T00:56:15;11.00;;;8.30;;
22922;SDS011;11627;51.322;22.816;2023-08-06T00:58:41;12.93;;;8.43;;
22922;SDS011;11627;51.322;22.816;2023-08-06T01:01:07;13.82;;;8.77;;
22922;SDS011;11627;51.322;22.816;2023-08-06T01:03:33;14.77;;;8.60;;
22922;SDS011;11627;51.322;22.816;2023-08-06T01:05:59;11.52;;;8.25;;
22922;SDS011;11627;51.322;22.816;2023-08-06T01:09:01;16.40;;;9.43;;
22922;SDS011;11627;51.322;22.816;2023-08-06T01:11:42;9.80;;;8.52;;
22922;SDS011;11627;51.322;22.816;2023-08-06T01:14:19;11.85;;;8.85;;
22922;SDS011;11627;51.322;22.816;2023-08-06T01:16:52;11.25;;;8.05;;
22922;SDS011;11627;51.322;22.816;2023-08-06T01:19:19;11.43;;;7.82;;
22922;SDS011;11627;51.322;22.816;2023-08-06T01:21:46;12.93;;;9.13;;
22922;SDS011;11627;51.322;22.816;2023-08-06T01:24:12;11.48;;;8.63;;
22922;SDS011;11627;51.322;22.816;2023-08-06T01:29:19;10.73;;;8.70;;
22922;SDS011;11627;51.322;22.816;2023-08-06T01:31:48;12.35;;;8.48;;
22922;SDS011;11627;51.322;22.816;2023-08-06T01:34:20;12.82;;;8.65;;
22922;SDS011;11627;51.322;22.816;2023-08-06T01:36:48;13.80;;;8.98;;
22922;SDS011;11627;51.322;22.816;2023-08-06T01:39:14;15.63;;;9.13;;
22922;SDS011;11627;51.322;22.816;2023-08-06T01:41:39;10.50;;;8.43;;
22922;SDS011;11627;51.322;22.816;2023-08-06T01:44:05;13.35;;;8.63;;
22922;SDS011;11627;51.322;22.816;2023-08-06T01:46:31;12.32;;;9.10;;
22922;SDS011;11627;51.322;22.816;2023-08-06T01:48:56;11.13;;;8.75;;
22922;SDS011;11627;51.322;22.816;2023-08-06T01:51:22;12.48;;;8.48;;
22922;SDS011;11627;51.322;22.816;2023-08-06T01:53:48;14.63;;;8.75;;
22922;SDS011;11627;51.322;22.816;2023-08-06T01:56:13;12.45;;;9.35;;
22922;SDS011;11627;51.322;22.816;2023-08-06T01:58:39;14.80;;;8.27;;
22922;SDS011;11627;51.322;22.816;2023-08-06T02:01:05;14.13;;;8.70;;
22922;SDS011;11627;51.322;22.816;2023-08-06T02:03:30;14.80;;;8.77;;
22922;SDS011;11627;51.322;22.816;2023-08-06T02:05:56;10.63;;;9.10;;
22922;SDS011;11627;51.322;22.816;2023-08-06T02:08:22;13.07;;;9.15;;
22922;SDS011;11627;51.322;22.816;2023-08-06T02:10:47;15.50;;;8.80;;
22922;SDS011;11627;51.322;22.816;2023-08-06T02:13:13;10.68;;;8.93;;
22922;SDS011;11627;51.322;22.816;2023-08-06T02:15:43;16.08;;;8.90;;
22922;SDS011;11627;51.322;22.816;2023-08-06T02:18:09;13.85;;;8.60;;
22922;SDS011;11627;51.322;22.816;2023-08-06T02:20:35;13.85;;;9.75;;
22922;SDS011;11627;51.322;22.816;2023-08-06T02:23:01;11.55;;;9.43;;
22922;SDS011;11627;51.322;22.816;2023-08-06T02:25:26;10.70;;;8.80;;
22922;SDS011;11627;51.322;22.816;2023-08-06T02:27:52;12.07;;;9.30;;
22922;SDS011;11627;51.322;22.816;2023-08-06T02:30:18;11.98;;;8.75;;
22922;SDS011;11627;51.322;22.816;2023-08-06T02:32:43;14.55;;;8.80;;
22922;SDS011;11627;51.322;22.816;2023-08-06T02:35:09;13.68;;;9.52;;
22922;SDS011;11627;51.322;22.816;2023-08-06T02:37:35;12.38;;;9.63;;
22922;SDS011;11627;51.322;22.816;2023-08-06T02:40:01;15.30;;;8.55;;
22922;SDS011;11627;51.322;22.816;2023-08-06T02:42:27;10.07;;;9.07;;
22922;SDS011;11627;51.322;22.816;2023-08-06T02:44:53;12.95;;;9.52;;
22922;SDS011;11627;51.322;22.816;2023-08-06T02:47:22;12.05;;;8.85;;
22922;SDS011;11627;51.322;22.816;2023-08-06T02:49:47;14.57;;;9.05;;
22922;SDS011;11627;51.322;22.816;2023-08-06T02:52:13;9.68;;;8.65;;
22922;SDS011;11627;51.322;22.816;2023-08-06T02:54:39;15.38;;;9.60;;
22922;SDS011;11627;51.322;22.816;2023-08-06T02:57:05;15.13;;;9.32;;
22922;SDS011;11627;51.322;22.816;2023-08-06T02:59:31;11.90;;;8.63;;
22922;SDS011;11627;51.322;22.816;2023-08-06T03:01:57;11.75;;;8.95;;
22922;SDS011;11627;51.322;22.816;2023-08-06T03:04:22;13.40;;;9.27;;
22922;SDS011;11627;51.322;22.816;2023-08-06T03:06:49;11.50;;;8.93;;
22922;SDS011;11627;51.322;22.816;2023-08-06T03:09:15;13.70;;;8.60;;
22922;SDS011;11627;51.322;22.816;2023-08-06T03:11:41;13.35;;;8.80;;
22922;SDS011;11627;51.322;22.816;2023-08-06T03:14:07;11.55;;;9.10;;
22922;SDS011;11627;51.322;22.816;2023-08-06T03:16:33;14.00;;;8.77;;
22922;SDS011;11627;51.322;22.816;2023-08-06T03:18:59;12.32;;;8.48;;
22922;SDS011;11627;51.322;22.816;2023-08-06T03:21:24;11.23;;;8.50;;
22922;SDS011;11627;51.322;22.816;2023-08-06T03:23:50;12.73;;;9.45;;
22922;SDS011;11627;51.322;22.816;2023-08-06T03:26:16;12.20;;;8.38;;
22922;SDS011;11627;51.322;22.816;2023-08-06T03:28:42;13.90;;;8.85;;
22922;SDS011;11627;51.322;22.816;2023-08-06T03:31:07;10.88;;;8.38;;
22922;SDS011;11627;51.322;22.816;2023-08-06T03:33:33;11.18;;;9.15;;
22922;SDS011;11627;51.322;22.816;2023-08-06T03:35:59;11.43;;;8.68;;
22922;SDS011;11627;51.322;22.816;2023-08-06T03:38:25;11.73;;;8.38;;
22922;SDS011;11627;51.322;22.816;2023-08-06T03:40:51;12.60;;;8.57;;
22922;SDS011;11627;51.322;22.816;2023-08-06T03:43:16;12.32;;;8.95;;
22922;SDS011;11627;51.322;22.816;2023-08-06T03:45:42;14.40;;;8.93;;
22922;SDS011;11627;51.322;22.816;2023-08-06T03:48:08;10.60;;;9.15;;
22922;SDS011;11627;51.322;22.816;2023-08-06T03:50:34;17.52;;;9.48;;
22922;SDS011;11627;51.322;22.816;2023-08-06T03:53:00;12.80;;;8.82;;
22922;SDS011;11627;51.322;22.816;2023-08-06T03:55:26;15.43;;;9.98;;
22922;SDS011;11627;51.322;22.816;2023-08-06T03:57:51;12.80;;;8.65;;
22922;SDS011;11627;51.322;22.816;2023-08-06T04:00:17;16.58;;;9.57;;
22922;SDS011;11627;51.322;22.816;2023-08-06T04:02:43;15.55;;;8.70;;
22922;SDS011;11627;51.322;22.816;2023-08-06T04:05:09;14.63;;;9.75;;
22922;SDS011;11627;51.322;22.816;2023-08-06T04:07:35;13.70;;;9.07;;
22922;SDS011;11627;51.322;22.816;2023-08-06T04:10:02;10.73;;;9.10;;
22922;SDS011;11627;51.322;22.816;2023-08-06T04:12:29;14.82;;;9.20;;
22922;SDS011;11627;51.322;22.816;2023-08-06T04:14:57;13.40;;;8.48;;
22922;SDS011;11627;51.322;22.816;2023-08-06T04:17:24;12.82;;;8.55;;
22922;SDS011;11627;51.322;22.816;2023-08-06T04:19:50;12.02;;;8.23;;
22922;SDS011;11627;51.322;22.816;2023-08-06T04:22:16;13.77;;;8.00;;
22922;SDS011;11627;51.322;22.816;2023-08-06T04:24:42;11.50;;;8.38;;
22922;SDS011;11627;51.322;22.816;2023-08-06T04:27:09;9.68;;;7.50;;
22922;SDS011;11627;51.322;22.816;2023-08-06T04:29:35;11.38;;;7.75;;
22922;SDS011;11627;51.322;22.816;2023-08-06T04:32:01;15.15;;;7.15;;
22922;SDS011;11627;51.322;22.816;2023-08-06T04:34:28;14.45;;;8.15;;
22922;SDS011;11627;51.322;22.816;2023-08-06T04:36:54;18.13;;;7.80;;
22922;SDS011;11627;51.322;22.816;2023-08-06T04:39:20;14.68;;;7.90;;
22922;SDS011;11627;51.322;22.816;2023-08-06T04:41:45;11.57;;;8.35;;
22922;SDS011;11627;51.322;22.816;2023-08-06T04:44:11;11.73;;;8.45;;
22922;SDS011;11627;51.322;22.816;2023-08-06T04:46:37;13.27;;;8.30;;
22922;SDS011;11627;51.322;22.816;2023-08-06T04:49:02;15.25;;;8.38;;
22922;SDS011;11627;51.322;22.816;2023-08-06T04:51:28;14.60;;;10.02;;
22922;SDS011;11627;51.322;22.816;2023-08-06T04:53:54;11.63;;;8.88;;
22922;SDS011;11627;51.322;22.816;2023-08-06T04:56:19;11.13;;;8.55;;
22922;SDS011;11627;51.322;22.816;2023-08-06T04:58:45;11.07;;;7.70;;
22922;SDS011;11627;51.322;22.816;2023-08-06T05:01:11;12.57;;;7.40;;
22922;SDS011;11627;51.322;22.816;2023-08-06T05:03:36;12.18;;;7.75;;
22922;SDS011;11627;51.322;22.816;2023-08-06T05:06:02;15.90;;;7.90;;
22922;SDS011;11627;51.322;22.816;2023-08-06T05:08:28;12.35;;;7.65;;
22922;SDS011;11627;51.322;22.816;2023-08-06T05:10:53;13.65;;;8.18;;
22922;SDS011;11627;51.322;22.816;2023-08-06T05:13:19;12.18;;;8.18;;
22922;SDS011;11627;51.322;22.816;2023-08-06T05:15:45;15.55;;;7.90;;
22922;SDS011;11627;51.322;22.816;2023-08-06T05:18:11;11.65;;;7.95;;
22922;SDS011;11627;51.322;22.816;2023-08-06T05:20:38;9.95;;;7.07;;
22922;SDS011;11627;51.322;22.816;2023-08-06T05:23:06;13.88;;;7.82;;
22922;SDS011;11627;51.322;22.816;2023-08-06T05:25:34;9.90;;;7.55;;
22922;SDS011;11627;51.322;22.816;2023-08-06T05:28:00;10.27;;;7.50;;
22922;SDS011;11627;51.322;22.816;2023-08-06T05:30:27;9.45;;;7.70;;
22922;SDS011;11627;51.322;22.816;2023-08-06T05:32:53;9.63;;;7.28;;
22922;SDS011;11627;51.322;22.816;2023-08-06T05:35:18;9.68;;;7.53;;
22922;SDS011;11627;51.322;22.816;2023-08-06T05:37:44;10.27;;;7.40;;
22922;SDS011;11627;51.322;22.816;2023-08-06T05:40:10;11.32;;;7.65;;
22922;SDS011;11627;51.322;22.816;2023-08-06T05:42:36;10.27;;;7.32;;
22922;SDS011;11627;51.322;22.816;2023-08-06T05:45:01;8.57;;;7.38;;
22922;SDS011;11627;51.322;22.816;2023-08-06T05:47:27;12.10;;;8.18;;
22922;SDS011;11627;51.322;22.816;2023-08-06T05:49:53;9.52;;;7.80;;
22922;SDS011;11627;51.322;22.816;2023-08-06T05:52:19;12.30;;;7.72;;
22922;SDS011;11627;51.322;22.816;2023-08-06T05:54:45;9.98;;;7.63;;
22922;SDS011;11627;51.322;22.816;2023-08-06T05:57:10;10.90;;;8.20;;
22922;SDS011;11627;51.322;22.816;2023-08-06T05:59:36;28.63;;;8.10;;
22922;SDS011;11627;51.322;22.816;2023-08-06T06:02:02;11.73;;;7.47;;
22922;SDS011;11627;51.322;22.816;2023-08-06T06:04:28;8.55;;;7.13;;
22922;SDS011;11627;51.322;22.816;2023-08-06T06:06:54;9.73;;;7.55;;
22922;SDS011;11627;51.322;22.816;2023-08-06T06:09:20;14.13;;;7.63;;
22922;SDS011;11627;51.322;22.816;2023-08-06T06:11:45;9.93;;;6.95;;
22922;SDS011;11627;51.322;22.816;2023-08-06T06:14:12;12.68;;;7.07;;
22922;SDS011;11627;51.322;22.816;2023-08-06T06:16:38;10.50;;;7.40;;
22922;SDS011;11627;51.322;22.816;2023-08-06T06:19:04;10.32;;;7.18;;
22922;SDS011;11627;51.322;22.816;2023-08-06T06:21:29;10.68;;;7.43;;
22922;SDS011;11627;51.322;22.816;2023-08-06T06:23:55;12.77;;;8.10;;
22922;SDS011;11627;51.322;22.816;2023-08-06T06:26:21;9.98;;;7.13;;
22922;SDS011;11627;51.322;22.816;2023-08-06T06:28:47;8.07;;;7.10;;
22922;SDS011;11627;51.322;22.816;2023-08-06T06:31:13;10.10;;;6.63;;
22922;SDS011;11627;51.322;22.816;2023-08-06T06:33:38;12.90;;;7.03;;
22922;SDS011;11627;51.322;22.816;2023-08-06T06:36:04;12.93;;;7.43;;
22922;SDS011;11627;51.322;22.816;2023-08-06T06:38:32;14.02;;;6.80;;
22922;SDS011;11627;51.322;22.816;2023-08-06T06:40:58;13.98;;;7.43;;
22922;SDS011;11627;51.322;22.816;2023-08-06T06:43:25;7.13;;;6.43;;
22922;SDS011;11627;51.322;22.816;2023-08-06T06:45:57;8.88;;;6.82;;
22922;SDS011;11627;51.322;22.816;2023-08-06T06:48:27;12.00;;;6.32;;
22922;SDS011;11627;51.322;22.816;2023-08-06T06:50:53;10.23;;;6.75;;
22922;SDS011;11627;51.322;22.816;2023-08-06T06:53:19;10.68;;;6.97;;
22922;SDS011;11627;51.322;22.816;2023-08-06T06:55:45;10.85;;;6.60;;
22922;SDS011;11627;51.322;22.816;2023-08-06T06:58:14;13.52;;;7.18;;
22922;SDS011;11627;51.322;22.816;2023-08-06T07:00:41;12.13;;;6.50;;
22922;SDS011;11627;51.322;22.816;2023-08-06T07:03:06;9.45;;;6.78;;
22922;SDS011;11627;51.322;22.816;2023-08-06T07:05:32;14.25;;;7.18;;
22922;SDS011;11627;51.322;22.816;2023-08-06T07:07:58;9.55;;;6.85;;
22922;SDS011;11627;51.322;22.816;2023-08-06T07:10:24;11.43;;;6.80;;
22922;SDS011;11627;51.322;22.816;2023-08-06T07:12:50;12.85;;;6.50;;
22922;SDS011;11627;51.322;22.816;2023-08-06T07:15:16;9.10;;;6.40;;
22922;SDS011;11627;51.322;22.816;2023-08-06T07:17:42;9.63;;;6.70;;
22922;SDS011;11627;51.322;22.816;2023-08-06T07:20:08;10.32;;;6.30;;
22922;SDS011;11627;51.322;22.816;2023-08-06T07:22:34;7.20;;;6.15;;
22922;SDS011;11627;51.322;22.816;2023-08-06T07:25:00;9.32;;;6.60;;
22922;SDS011;11627;51.322;22.816;2023-08-06T07:27:26;13.55;;;6.15;;
22922;SDS011;11627;51.322;22.816;2023-08-06T07:29:52;12.38;;;6.65;;
22922;SDS011;11627;51.322;22.816;2023-08-06T07:32:18;9.52;;;6.82;;
22922;SDS011;11627;51.322;22.816;2023-08-06T07:34:44;12.65;;;6.75;;
22922;SDS011;11627;51.322;22.816;2023-08-06T07:37:09;9.52;;;7.32;;
22922;SDS011;11627;51.322;22.816;2023-08-06T07:39:35;12.48;;;6.45;;
22922;SDS011;11627;51.322;22.816;2023-08-06T07:42:03;13.65;;;6.05;;
22922;SDS011;11627;51.322;22.816;2023-08-06T07:44:30;8.07;;;6.50;;
22922;SDS011;11627;51.322;22.816;2023-08-06T07:46:56;15.68;;;6.95;;
22922;SDS011;11627;51.322;22.816;2023-08-06T07:49:22;9.77;;;6.95;;
22922;SDS011;11627;51.322;22.816;2023-08-06T07:51:48;10.93;;;7.00;;
22922;SDS011;11627;51.322;22.816;2023-08-06T07:54:13;8.50;;;6.55;;
22922;SDS011;11627;51.322;22.816;2023-08-06T07:56:39;9.43;;;6.32;;
22922;SDS011;11627;51.322;22.816;2023-08-06T07:59:05;10.10;;;6.78;;
22922;SDS011;11627;51.322;22.816;2023-08-06T08:01:30;9.55;;;7.00;;
22922;SDS011;11627;51.322;22.816;2023-08-06T08:03:56;10.13;;;6.22;;
22922;SDS011;11627;51.322;22.816;2023-08-06T08:06:22;12.70;;;6.05;;
22922;SDS011;11627;51.322;22.816;2023-08-06T08:08:48;8.07;;;6.25;;
22922;SDS011;11627;51.322;22.816;2023-08-06T08:11:14;10.05;;;6.90;;
22922;SDS011;11627;51.322;22.816;2023-08-06T08:13:41;13.18;;;5.93;;
22922;SDS011;11627;51.322;22.816;2023-08-06T08:16:07;10.85;;;6.78;;
22922;SDS011;11627;51.322;22.816;2023-08-06T08:18:32;12.60;;;6.60;;
22922;SDS011;11627;51.322;22.816;2023-08-06T08:20:58;12.98;;;6.65;;
22922;SDS011;11627;51.322;22.816;2023-08-06T08:23:24;10.23;;;6.60;;
22922;SDS011;11627;51.322;22.816;2023-08-06T08:25:50;12.43;;;6.72;;
22922;SDS011;11627;51.322;22.816;2023-08-06T08:28:16;8.00;;;6.57;;
22922;SDS011;11627;51.322;22.816;2023-08-06T08:30:42;10.38;;;6.88;;
22922;SDS011;11627;51.322;22.816;2023-08-06T08:33:07;11.70;;;7.10;;
22922;SDS011;11627;51.322;22.816;2023-08-06T08:35:33;15.65;;;7.05;;
22922;SDS011;11627;51.322;22.816;2023-08-06T08:38:01;12.68;;;7.55;;
22922;SDS011;11627;51.322;22.816;2023-08-06T08:40:28;15.13;;;6.93;;
22922;SDS011;11627;51.322;22.816;2023-08-06T08:42:57;11.13;;;7.05;;
22922;SDS011;11627;51.322;22.816;2023-08-06T08:45:24;13.55;;;7.60;;
22922;SDS011;11627;51.322;22.816;2023-08-06T08:47:53;12.70;;;7.57;;
22922;SDS011;11627;51.322;22.816;2023-08-06T08:50:19;10.10;;;6.50;;
22922;SDS011;11627;51.322;22.816;2023-08-06T08:52:48;11.55;;;6.80;;
22922;SDS011;11627;51.322;22.816;2023-08-06T08:55:16;10.95;;;6.45;;
22922;SDS011;11627;51.322;22.816;2023-08-06T08:57:42;10.32;;;6.88;;
22922;SDS011;11627;51.322;22.816;2023-08-06T09:00:08;12.35;;;7.00;;
22922;SDS011;11627;51.322;22.816;2023-08-06T09:02:34;9.27;;;6.53;;
22922;SDS011;11627;51.322;22.816;2023-08-06T09:05:03;10.52;;;7.18;;
22922;SDS011;11627;51.322;22.816;2023-08-06T09:07:38;13.52;;;6.68;;
22922;SDS011;11627;51.322;22.816;2023-08-06T09:10:08;13.32;;;7.07;;
22922;SDS011;11627;51.322;22.816;2023-08-06T09:12:38;15.77;;;7.03;;
22922;SDS011;11627;51.322;22.816;2023-08-06T09:15:04;11.93;;;6.90;;
22922;SDS011;11627;51.322;22.816;2023-08-06T09:17:30;11.93;;;7.22;;
22922;SDS011;11627;51.322;22.816;2023-08-06T09:19:56;9.10;;;6.47;;
22922;SDS011;11627;51.322;22.816;2023-08-06T09:22:22;11.85;;;6.63;;
22922;SDS011;11627;51.322;22.816;2023-08-06T09:24:48;8.35;;;6.75;;
22922;SDS011;11627;51.322;22.816;2023-08-06T09:27:14;12.45;;;6.60;;
22922;SDS011;11627;51.322;22.816;2023-08-06T09:29:44;11.90;;;6.55;;
22922;SDS011;11627;51.322;22.816;2023-08-06T09:32:11;7.55;;;6.60;;
22922;SDS011;11627;51.322;22.816;2023-08-06T09:34:43;11.95;;;6.28;;
22922;SDS011;11627;51.322;22.816;2023-08-06T09:37:11;11.20;;;6.82;;
22922;SDS011;11627;51.322;22.816;2023-08-06T09:39:38;8.32;;;6.68;;
22922;SDS011;11627;51.322;22.816;2023-08-06T09:42:08;9.63;;;6.60;;
22922;SDS011;11627;51.322;22.816;2023-08-06T09:44:33;8.82;;;6.20;;
22922;SDS011;11627;51.322;22.816;2023-08-06T09:47:03;8.95;;;5.68;;
22922;SDS011;11627;51.322;22.816;2023-08-06T09:51:58;13.93;;;6.53;;
22922;SDS011;11627;51.322;22.816;2023-08-06T09:54:25;13.15;;;6.80;;
22922;SDS011;11627;51.322;22.816;2023-08-06T09:56:56;16.23;;;6.63;;
22922;SDS011;11627;51.322;22.816;2023-08-06T09:59:25;14.77;;;7.82;;
22922;SDS011;11627;51.322;22.816;2023-08-06T10:01:51;9.65;;;6.65;;
22922;SDS011;11627;51.322;22.816;2023-08-06T10:04:19;14.60;;;7.80;;
22922;SDS011;11627;51.322;22.816;2023-08-06T10:06:48;11.95;;;6.88;;
22922;SDS011;11627;51.322;22.816;2023-08-06T10:09:14;14.20;;;6.65;;
22922;SDS011;11627;51.322;22.816;2023-08-06T10:11:41;9.80;;;6.43;;
22922;SDS011;11627;51.322;22.816;2023-08-06T10:14:28;10.98;;;6.47;;
22922;SDS011;11627;51.322;22.816;2023-08-06T10:16:57;10.02;;;6.53;;
22922;SDS011;11627;51.322;22.816;2023-08-06T10:19:25;15.00;;;6.85;;
22922;SDS011;11627;51.322;22.816;2023-08-06T10:24:49;13.90;;;6.70;;
22922;SDS011;11627;51.322;22.816;2023-08-06T10:32:52;16.23;;;6.25;;
22922;SDS011;11627;51.322;22.816;2023-08-06T10:38:10;7.60;;;6.38;;
22922;SDS011;11627;51.322;22.816;2023-08-06T10:40:41;8.90;;;6.68;;
22922;SDS011;11627;51.322;22.816;2023-08-06T10:43:24;10.18;;;7.10;;
22922;SDS011;11627;51.322;22.816;2023-08-06T10:46:04;9.52;;;6.72;;
22922;SDS011;11627;51.322;22.816;2023-08-06T10:51:01;20.23;;;6.95;;
22922;SDS011;11627;51.322;22.816;2023-08-06T10:53:28;8.85;;;6.82;;
22922;SDS011;11627;51.322;22.816;2023-08-06T10:55:54;14.48;;;7.07;;
22922;SDS011;11627;51.322;22.816;2023-08-06T10:58:20;10.57;;;6.80;;
22922;SDS011;11627;51.322;22.816;2023-08-06T11:00:46;11.48;;;6.93;;
22922;SDS011;11627;51.322;22.816;2023-08-06T11:03:12;10.70;;;6.80;;
22922;SDS011;11627;51.322;22.816;2023-08-06T11:05:38;10.77;;;6.57;;
22922;SDS011;11627;51.322;22.816;2023-08-06T11:08:04;18.30;;;7.15;;
22922;SDS011;11627;51.322;22.816;2023-08-06T11:10:32;8.38;;;6.45;;
22922;SDS011;11627;51.322;22.816;2023-08-06T11:13:02;9.77;;;6.85;;
22922;SDS011;11627;51.322;22.816;2023-08-06T11:15:29;13.63;;;6.97;;
22922;SDS011;11627;51.322;22.816;2023-08-06T11:17:55;11.00;;;6.68;;
22922;SDS011;11627;51.322;22.816;2023-08-06T11:20:24;11.38;;;6.90;;
22922;SDS011;11627;51.322;22.816;2023-08-06T11:22:50;10.05;;;6.82;;
22922;SDS011;11627;51.322;22.816;2023-08-06T11:25:19;11.93;;;6.75;;
22922;SDS011;11627;51.322;22.816;2023-08-06T11:27:46;11.20;;;7.10;;
22922;SDS011;11627;51.322;22.816;2023-08-06T11:30:14;11.70;;;6.93;;
22922;SDS011;11627;51.322;22.816;2023-08-06T11:32:46;13.80;;;6.72;;
22922;SDS011;11627;51.322;22.816;2023-08-06T11:35:12;12.15;;;7.07;;
22922;SDS011;11627;51.322;22.816;2023-08-06T11:37:39;13.38;;;7.45;;
22922;SDS011;11627;51.322;22.816;2023-08-06T11:40:10;17.00;;;7.10;;
22922;SDS011;11627;51.322;22.816;2023-08-06T11:42:38;11.15;;;7.07;;
22922;SDS011;11627;51.322;22.816;2023-08-06T11:45:04;9.45;;;7.00;;
22922;SDS011;11627;51.322;22.816;2023-08-06T11:47:30;11.88;;;6.50;;
22922;SDS011;11627;51.322;22.816;2023-08-06T11:49:56;9.70;;;6.60;;
22922;SDS011;11627;51.322;22.816;2023-08-06T11:52:25;17.30;;;6.50;;
22922;SDS011;11627;51.322;22.816;2023-08-06T11:57:38;17.15;;;6.57;;
22922;SDS011;11627;51.322;22.816;2023-08-06T12:00:14;14.60;;;6.95;;
22922;SDS011;11627;51.322;22.816;2023-08-06T12:02:44;8.80;;;6.85;;
22922;SDS011;11627;51.322;22.816;2023-08-06T12:05:14;10.50;;;6.85;;
22922;SDS011;11627;51.322;22.816;2023-08-06T12:07:42;12.80;;;7.20;;
22922;SDS011;11627;51.322;22.816;2023-08-06T12:10:12;10.25;;;6.57;;
22922;SDS011;11627;51.322;22.816;2023-08-06T12:12:38;19.60;;;7.05;;
22922;SDS011;11627;51.322;22.816;2023-08-06T12:15:05;9.60;;;6.68;;
22922;SDS011;11627;51.322;22.816;2023-08-06T12:17:32;12.18;;;6.65;;
22922;SDS011;11627;51.322;22.816;2023-08-06T12:19:58;8.13;;;6.82;;
22922;SDS011;11627;51.322;22.816;2023-08-06T12:22:23;12.05;;;6.93;;
22922;SDS011;11627;51.322;22.816;2023-08-06T12:24:49;12.30;;;7.10;;
22922;SDS011;11627;51.322;22.816;2023-08-06T12:27:15;10.25;;;7.43;;
22922;SDS011;11627;51.322;22.816;2023-08-06T12:29:42;23.08;;;7.43;;
22922;SDS011;11627;51.322;22.816;2023-08-06T12:32:09;13.38;;;6.93;;
22922;SDS011;11627;51.322;22.816;2023-08-06T12:34:37;10.07;;;6.57;;
22922;SDS011;11627;51.322;22.816;2023-08-06T12:37:06;13.57;;;7.15;;
22922;SDS011;11627;51.322;22.816;2023-08-06T12:39:33;10.35;;;7.28;;
22922;SDS011;11627;51.322;22.816;2023-08-06T12:42:00;16.60;;;7.50;;
22922;SDS011;11627;51.322;22.816;2023-08-06T12:44:27;10.95;;;7.70;;
22922;SDS011;11627;51.322;22.816;2023-08-06T12:46:53;12.40;;;7.10;;
22922;SDS011;11627;51.322;22.816;2023-08-06T12:49:19;15.88;;;8.25;;
22922;SDS011;11627;51.322;22.816;2023-08-06T12:51:49;10.60;;;7.32;;
22922;SDS011;11627;51.322;22.816;2023-08-06T12:54:22;11.73;;;7.70;;
22922;SDS011;11627;51.322;22.816;2023-08-06T12:56:48;9.13;;;7.70;;
22922;SDS011;11627;51.322;22.816;2023-08-06T12:59:14;12.23;;;7.80;;
22922;SDS011;11627;51.322;22.816;2023-08-06T13:01:41;9.70;;;7.82;;
22922;SDS011;11627;51.322;22.816;2023-08-06T13:04:08;12.38;;;8.10;;
22922;SDS011;11627;51.322;22.816;2023-08-06T13:06:34;15.65;;;8.30;;
22922;SDS011;11627;51.322;22.816;2023-08-06T13:09:07;10.18;;;7.95;;
22922;SDS011;11627;51.322;22.816;2023-08-06T13:11:35;10.95;;;7.95;;
22922;SDS011;11627;51.322;22.816;2023-08-06T13:14:12;12.88;;;8.02;;
22922;SDS011;11627;51.322;22.816;2023-08-06T13:16:40;12.18;;;8.70;;
22922;SDS011;11627;51.322;22.816;2023-08-06T13:19:07;12.20;;;7.82;;
22922;SDS011;11627;51.322;22.816;2023-08-06T13:24:11;18.80;;;6.03;;
22922;SDS011;11627;51.322;22.816;2023-08-06T13:26:37;20.25;;;8.20;;
22922;SDS011;11627;51.322;22.816;2023-08-06T13:29:51;22.73;;;9.18;;
22922;SDS011;11627;51.322;22.816;2023-08-06T13:32:17;26.50;;;10.77;;
22922;SDS011;11627;51.322;22.816;2023-08-06T13:34:43;21.00;;;9.13;;
22922;SDS011;11627;51.322;22.816;2023-08-06T13:40:50;17.92;;;8.75;;
22922;SDS011;11627;51.322;22.816;2023-08-06T13:43:15;17.73;;;9.80;;
22922;SDS011;11627;51.322;22.816;2023-08-06T13:45:44;15.65;;;8.40;;
22922;SDS011;11627;51.322;22.816;2023-08-06T13:48:09;12.02;;;8.45;;
22922;SDS011;11627;51.322;22.816;2023-08-06T13:50:36;9.85;;;7.93;;
22922;SDS011;11627;51.322;22.816;2023-08-06T13:53:02;13.32;;;8.20;;
22922;SDS011;11627;51.322;22.816;2023-08-06T13:55:28;10.63;;;8.50;;
22922;SDS011;11627;51.322;22.816;2023-08-06T13:57:55;10.52;;;7.40;;
22922;SDS011;11627;51.322;22.816;2023-08-06T14:00:21;9.13;;;6.82;;
22922;SDS011;11627;51.322;22.816;2023-08-06T14:02:47;8.68;;;6.30;;
22922;SDS011;11627;51.322;22.816;2023-08-06T14:05:12;9.02;;;7.55;;
22922;SDS011;11627;51.322;22.816;2023-08-06T14:07:38;7.63;;;6.70;;
22922;SDS011;11627;51.322;22.816;2023-08-06T14:10:04;10.30;;;6.88;;
22922;SDS011;11627;51.322;22.816;2023-08-06T14:12:31;7.78;;;6.97;;
22922;SDS011;11627;51.322;22.816;2023-08-06T14:14:57;8.50;;;7.60;;
22922;SDS011;11627;51.322;22.816;2023-08-06T14:17:25;8.27;;;7.18;;
22922;SDS011;11627;51.322;22.816;2023-08-06T14:19:51;8.18;;;6.88;;
22922;SDS011;11627;51.322;22.816;2023-08-06T14:22:17;8.07;;;6.80;;
22922;SDS011;11627;51.322;22.816;2023-08-06T14:24:42;7.55;;;6.80;;
22922;SDS011;11627;51.322;22.816;2023-08-06T14:27:08;6.93;;;6.22;;
22922;SDS011;11627;51.322;22.816;2023-08-06T14:29:34;8.90;;;7.25;;
22922;SDS011;11627;51.322;22.816;2023-08-06T14:32:00;11.20;;;7.43;;
22922;SDS011;11627;51.322;22.816;2023-08-06T14:34:26;8.45;;;6.90;;
22922;SDS011;11627;51.322;22.816;2023-08-06T14:36:52;9.15;;;7.72;;
22922;SDS011;11627;51.322;22.816;2023-08-06T14:39:18;9.02;;;7.18;;
22922;SDS011;11627;51.322;22.816;2023-08-06T14:41:44;8.93;;;6.72;;
22922;SDS011;11627;51.322;22.816;2023-08-06T14:44:10;9.27;;;7.10;;
22922;SDS011;11627;51.322;22.816;2023-08-06T14:46:36;8.85;;;7.38;;
22922;SDS011;11627;51.322;22.816;2023-08-06T14:49:02;9.55;;;6.95;;